Time;durP1;ratioP1;P1;durP2;ratioP2;P2;SDS_P1;SDS_P2;PMS_P1;PMS_P2;Temp;Humidity;BMP_temperature;BMP_pressure;BME280_temperature;BME280_humidity;BME280_pressure;Samples;Min_cycle;Max_cycle;Signal;HPM_P1;HPM_P2
2023/03/03 00:00:29;;;;;;;53.50;37.25;;;5.00;99.90;;;;;;5033755;28;20053;-82
2023/03/03 00:02:59;;;;;;;51.20;36.00;;;5.20;99.90;;;;;;5033744;28;20453;-81
2023/03/03 00:05:25;;;;;;;53.75;36.65;;;5.40;99.90;;;;;;5034196;28;20030;-82
2023/03/03 00:07:51;;;;;;;57.53;37.90;;;5.20;99.90;;;;;;5033594;28;20041;-82
2023/03/03 00:10:17;;;;;;;53.75;37.10;;;4.90;99.90;;;;;;5033908;28;20056;-82
2023/03/03 00:12:49;;;;;;;51.47;36.22;;;4.90;99.90;;;;;;5033296;28;20033;-82
2023/03/03 00:15:18;;;;;;;57.10;38.50;;;4.90;99.90;;;;;;5033312;28;20036;-82
2023/03/03 00:17:43;;;;;;;55.08;36.70;;;4.80;99.90;;;;;;5033516;28;20057;-81
2023/03/03 00:20:36;;;;;;;55.47;36.60;;;5.10;99.90;;;;;;5033712;28;20053;-82
2023/03/03 00:23:17;;;;;;;54.17;35.63;;;4.80;99.90;;;;;;5033312;28;20033;-82
2023/03/03 00:25:44;;;;;;;56.05;36.63;;;4.80;99.90;;;;;;5033114;28;20067;-82
2023/03/03 00:28:43;;;;;;;56.65;37.08;;;4.80;99.90;;;;;;5033394;28;20033;-82
2023/03/03 00:31:18;;;;;;;55.35;36.85;;;4.60;99.90;;;;;;5033211;28;20049;-81
2023/03/03 00:33:53;;;;;;;55.90;36.17;;;5.00;99.90;;;;;;5033202;28;20025;-82
2023/03/03 00:36:30;;;;;;;51.75;35.30;;;4.60;99.90;;;;;;5033061;28;20025;-82
2023/03/03 00:39:16;;;;;;;54.03;35.65;;;4.60;99.90;;;;;;5033358;28;20049;-81
2023/03/03 00:41:42;;;;;;;56.35;37.33;;;4.60;99.90;;;;;;5032919;28;20029;-82
2023/03/03 00:44:38;;;;;;;55.33;36.35;;;4.90;99.90;;;;;;5033084;28;20021;-82
2023/03/03 00:47:35;;;;;;;55.63;36.33;;;4.60;99.90;;;;;;5033054;28;20045;-82
2023/03/03 00:50:10;;;;;;;58.05;36.95;;;4.50;99.90;;;;;;5032802;28;20033;-82
2023/03/03 00:52:43;;;;;;;58.47;36.55;;;4.70;99.90;;;;;;5032597;28;20387;-82
2023/03/03 00:55:10;;;;;;;57.10;37.95;;;4.80;99.90;;;;;;5032323;28;20117;-82
2023/03/03 00:57:36;;;;;;;56.05;37.63;;;4.80;99.90;;;;;;5018168;28;20457;-81
2023/03/03 01:00:03;;;;;;;58.80;38.40;;;4.60;99.90;;;;;;5013280;28;20034;-82
2023/03/03 01:02:29;;;;;;;57.38;37.55;;;4.40;99.90;;;;;;5013006;28;20022;-81
2023/03/03 01:04:55;;;;;;;56.13;37.42;;;4.40;99.90;;;;;;5012924;28;20041;-81
2023/03/03 01:07:22;;;;;;;56.17;38.42;;;5.00;99.90;;;;;;5012990;28;20038;-82
2023/03/03 01:09:48;;;;;;;57.55;37.35;;;4.50;99.90;;;;;;5012440;28;20033;-81
2023/03/03 01:12:14;;;;;;;58.58;38.10;;;4.50;99.90;;;;;;5012716;28;20034;-82
2023/03/03 01:14:40;;;;;;;58.03;38.30;;;4.40;99.90;;;;;;5012594;28;20025;-82
2023/03/03 01:17:06;;;;;;;54.17;37.38;;;4.40;99.90;;;;;;5013162;28;20084;-81
2023/03/03 01:19:31;;;;;;;60.30;38.83;;;4.70;99.90;;;;;;5012690;28;20022;-81
2023/03/03 01:21:57;;;;;;;57.67;37.75;;;4.40;99.90;;;;;;5012636;28;20038;-82
2023/03/03 01:24:23;;;;;;;55.92;37.58;;;4.40;99.90;;;;;;5012286;28;20073;-81
2023/03/03 01:26:49;;;;;;;58.70;37.45;;;4.40;99.90;;;;;;5012046;28;20058;-82
2023/03/03 01:29:14;;;;;;;58.17;38.08;;;4.40;99.90;;;;;;5012586;28;20033;-82
2023/03/03 01:31:40;;;;;;;57.85;39.20;;;4.50;99.90;;;;;;5012539;28;20052;-82
2023/03/03 01:34:06;;;;;;;56.38;37.63;;;4.60;99.90;;;;;;5012936;28;20496;-82
2023/03/03 01:36:33;;;;;;;57.45;37.75;;;4.30;99.90;;;;;;5012485;28;20057;-81
2023/03/03 01:39:00;;;;;;;56.85;38.42;;;4.60;99.90;;;;;;5011721;28;20026;-82
2023/03/03 01:41:32;;;;;;;62.45;39.47;;;4.20;99.90;;;;;;5011749;28;20026;-82
2023/03/03 01:43:58;;;;;;;54.80;36.90;;;4.50;99.90;;;;;;5012025;28;20036;-82
2023/03/03 01:46:33;;;;;;;56.13;37.60;;;4.20;99.90;;;;;;5012391;28;20022;-82
2023/03/03 01:49:06;;;;;;;58.88;38.83;;;4.20;99.90;;;;;;5012371;28;20425;-82
2023/03/03 01:51:37;;;;;;;53.88;36.10;;;4.40;99.90;;;;;;5012251;28;20026;-81
2023/03/03 01:54:13;;;;;;;58.35;37.65;;;4.10;99.90;;;;;;5012088;28;20061;-82
2023/03/03 01:56:41;;;;;;;61.47;38.15;;;4.10;99.90;;;;;;5018353;28;20076;-82
2023/03/03 01:59:20;;;;;;;57.25;37.67;;;4.20;99.90;;;;;;5032234;28;20033;-82
2023/03/03 02:01:46;;;;;;;60.90;37.53;;;3.90;99.90;;;;;;5031765;28;20064;-82
2023/03/03 02:04:12;;;;;;;59.65;37.58;;;4.30;99.90;;;;;;5031940;28;20041;-82
2023/03/03 02:06:43;;;;;;;57.47;36.28;;;4.10;99.90;;;;;;5031953;28;20037;-81
2023/03/03 02:09:25;;;;;;;56.72;37.75;;;4.20;99.90;;;;;;5031805;28;20026;-81
2023/03/03 02:11:55;;;;;;;59.05;38.80;;;3.70;99.90;;;;;;5031697;28;20013;-81
2023/03/03 02:14:23;;;;;;;56.53;36.97;;;3.70;99.90;;;;;;5031700;28;20458;-82
2023/03/03 02:16:49;;;;;;;57.88;37.30;;;3.80;99.90;;;;;;5031876;28;20026;-81
2023/03/03 02:19:24;;;;;;;59.63;38.40;;;4.30;99.90;;;;;;5031933;28;20072;-82
2023/03/03 02:21:50;;;;;;;58.05;36.83;;;3.90;99.90;;;;;;5031599;28;20033;-82
2023/03/03 02:24:32;;;;;;;60.35;38.10;;;3.80;99.90;;;;;;5031567;28;20104;-82
2023/03/03 02:26:57;;;;;;;62.42;37.88;;;3.60;99.90;;;;;;5031510;28;20044;-82
2023/03/03 02:29:23;;;;;;;57.78;37.20;;;3.60;99.90;;;;;;5031631;28;20026;-81
2023/03/03 02:31:49;;;;;;;59.65;38.03;;;3.70;99.90;;;;;;5031584;28;20037;-81
2023/03/03 02:34:14;;;;;;;57.58;36.47;;;3.60;99.90;;;;;;5031558;28;20112;-82
2023/03/03 02:36:40;;;;;;;59.92;39.58;;;3.80;99.90;;;;;;5031558;28;20032;-81
2023/03/03 02:39:17;;;;;;;59.33;37.50;;;3.90;99.90;;;;;;5033607;28;20029;-82
2023/03/03 02:41:59;;;;;;;59.53;38.75;;;3.90;99.90;;;;;;5035256;28;20028;-82
2023/03/03 02:44:27;;;;;;;57.78;37.85;;;3.40;99.90;;;;;;5035347;28;20025;-82
2023/03/03 02:46:54;;;;;;;57.83;36.72;;;3.50;99.90;;;;;;5034958;28;20482;-81
2023/03/03 02:49:26;;;;;;;57.67;37.03;;;3.40;99.90;;;;;;5035369;28;20108;-82
2023/03/03 02:51:53;;;;;;;57.35;38.33;;;3.40;99.90;;;;;;5035039;28;20034;-81
2023/03/03 02:54:22;;;;;;;59.75;37.55;;;3.50;99.90;;;;;;5035072;28;20091;-81
2023/03/03 02:56:47;;;;;;;58.10;38.17;;;3.80;99.90;;;;;;5026700;28;20042;-82
2023/03/03 02:59:14;;;;;;;58.22;37.30;;;3.40;99.90;;;;;;5015649;28;20595;-82
2023/03/03 03:01:40;;;;;;;56.17;36.25;;;3.20;99.90;;;;;;5015114;28;20030;-82
2023/03/03 03:04:10;;;;;;;53.72;35.10;;;2.90;99.90;;;;;;5015216;28;20029;-82
2023/03/03 03:06:36;;;;;;;59.67;36.00;;;2.70;99.90;;;;;;5014906;28;20116;-82
2023/03/03 03:09:03;;;;;;;54.97;35.97;;;2.90;99.90;;;;;;5015333;28;20037;-82
2023/03/03 03:11:29;;;;;;;55.40;36.47;;;2.20;99.90;;;;;;5014951;28;20034;-82
2023/03/03 03:13:55;;;;;;;57.60;36.05;;;2.70;99.90;;;;;;5014990;28;20105;-82
2023/03/03 03:16:20;;;;;;;60.90;37.47;;;2.30;99.90;;;;;;4997394;28;20033;-82
2023/03/03 03:18:46;;;;;;;60.08;37.40;;;2.90;99.90;;;;;;5015385;28;20444;-82
2023/03/03 03:21:12;;;;;;;61.22;37.85;;;2.40;99.90;;;;;;5014526;28;20478;-81
2023/03/03 03:23:39;;;;;;;58.17;37.30;;;2.50;99.90;;;;;;5014719;28;20029;-82
2023/03/03 03:26:05;;;;;;;58.85;37.42;;;2.90;99.90;;;;;;5014859;28;20108;-82
2023/03/03 03:28:32;;;;;;;59.70;37.08;;;2.40;99.90;;;;;;5014965;28;20045;-82
2023/03/03 03:30:57;;;;;;;57.97;36.58;;;2.30;99.90;;;;;;5014496;28;20022;-82
2023/03/03 03:33:23;;;;;;;60.72;37.72;;;3.00;99.90;;;;;;5014662;28;20036;-82
2023/03/03 03:35:49;;;;;;;61.88;37.03;;;2.50;99.90;;;;;;5014294;28;20097;-81
2023/03/03 03:38:15;;;;;;;55.10;36.35;;;3.00;99.90;;;;;;5014342;28;20064;-82
2023/03/03 03:40:41;;;;;;;55.47;36.72;;;2.80;99.90;;;;;;5014712;28;20030;-82
2023/03/03 03:43:07;;;;;;;62.72;38.28;;;2.70;99.90;;;;;;5014734;28;20065;-81
2023/03/03 03:45:33;;;;;;;60.40;38.65;;;2.90;99.90;;;;;;5014383;28;20057;-82
2023/03/03 03:47:58;;;;;;;61.47;38.55;;;2.70;99.90;;;;;;5014260;28;20117;-81
2023/03/03 03:50:24;;;;;;;56.88;36.65;;;2.40;99.90;;;;;;5013656;28;20053;-82
2023/03/03 03:52:50;;;;;;;61.05;38.55;;;2.30;99.90;;;;;;5014215;28;20029;-82
2023/03/03 03:55:16;;;;;;;60.72;39.50;;;2.30;99.90;;;;;;5014508;28;20097;-82
2023/03/03 03:57:42;;;;;;;68.55;43.38;;;2.20;99.90;;;;;;5029104;28;20064;-82
2023/03/03 04:00:09;;;;;;;65.22;40.25;;;2.50;99.90;;;;;;5033905;28;20065;-82
2023/03/03 04:02:35;;;;;;;61.65;38.45;;;2.40;99.90;;;;;;5033738;28;20071;-82
2023/03/03 04:05:01;;;;;;;63.70;40.47;;;2.70;99.90;;;;;;5033459;28;20033;-82
2023/03/03 04:07:27;;;;;;;63.20;38.92;;;2.60;99.90;;;;;;5033668;28;20040;-82
2023/03/03 04:09:52;;;;;;;57.80;37.88;;;2.20;99.90;;;;;;5033776;28;20033;-81
2023/03/03 04:12:18;;;;;;;63.45;39.30;;;2.30;99.90;;;;;;5033983;28;20025;-82
2023/03/03 04:14:44;;;;;;;62.58;38.35;;;2.60;99.90;;;;;;5033624;28;20021;-82
2023/03/03 04:17:19;;;;;;;60.80;39.15;;;2.00;99.90;;;;;;5033660;28;20083;-82
2023/03/03 04:19:45;;;;;;;61.08;39.00;;;2.00;99.90;;;;;;5033369;28;20032;-82
2023/03/03 04:22:12;;;;;;;58.88;37.47;;;2.10;99.90;;;;;;5033837;28;20478;-82
2023/03/03 04:24:39;;;;;;;62.75;38.80;;;2.60;99.90;;;;;;5033971;28;20025;-82
2023/03/03 04:27:05;;;;;;;60.95;39.28;;;2.60;99.90;;;;;;5033267;28;20044;-82
2023/03/03 04:29:31;;;;;;;61.40;38.97;;;2.60;99.90;;;;;;5033510;28;20041;-82
2023/03/03 04:31:56;;;;;;;60.45;39.10;;;2.60;99.90;;;;;;5033278;28;20442;-82
2023/03/03 04:34:22;;;;;;;65.43;40.53;;;2.50;99.90;;;;;;5033194;28;20031;-82
2023/03/03 04:36:48;;;;;;;68.35;39.03;;;1.70;99.90;;;;;;5033201;28;20063;-82
2023/03/03 04:39:13;;;;;;;63.67;38.42;;;1.80;99.90;;;;;;5033447;28;20036;-82
2023/03/03 04:41:39;;;;;;;63.58;38.38;;;1.70;99.90;;;;;;5033060;28;20025;-82
2023/03/03 04:44:05;;;;;;;63.45;39.15;;;2.10;99.90;;;;;;5033122;28;20109;-81
2023/03/03 04:46:30;;;;;;;64.90;40.65;;;1.70;99.90;;;;;;5014856;28;20515;-82
2023/03/03 04:48:56;;;;;;;65.75;40.00;;;1.60;99.90;;;;;;5032940;28;20033;-82
2023/03/03 04:51:22;;;;;;;65.50;40.58;;;2.40;99.90;;;;;;5032792;28;20060;-81
2023/03/03 04:53:47;;;;;;;64.93;40.95;;;1.70;99.90;;;;;;5032448;28;20550;-82
2023/03/03 04:56:14;;;;;;;59.40;37.80;;;2.10;99.90;;;;;;5029162;28;20045;-81
2023/03/03 04:58:39;;;;;;;65.55;38.95;;;2.20;99.90;;;;;;5012983;28;20026;-82
2023/03/03 05:01:05;;;;;;;64.47;39.33;;;2.30;99.90;;;;;;5012118;28;20030;-81
2023/03/03 05:03:30;;;;;;;64.10;39.97;;;1.70;99.90;;;;;;5012474;28;20551;-82
2023/03/03 05:05:56;;;;;;;60.97;38.25;;;2.20;99.90;;;;;;5012515;28;20441;-82
2023/03/03 05:08:22;;;;;;;64.88;39.30;;;1.70;99.90;;;;;;5012404;28;20041;-82
2023/03/03 05:10:52;;;;;;;61.28;38.97;;;1.60;99.90;;;;;;5011810;28;20025;-82
2023/03/03 05:13:18;;;;;;;63.50;37.92;;;1.60;99.90;;;;;;5013229;28;20397;-81
2023/03/03 05:15:51;;;;;;;67.38;39.65;;;1.40;99.90;;;;;;5012269;28;20109;-81
2023/03/03 05:18:18;;;;;;;67.78;40.97;;;1.30;99.90;;;;;;5012838;28;20077;-82
2023/03/03 05:20:44;;;;;;;68.38;41.40;;;2.00;99.90;;;;;;5012999;28;20026;-81
2023/03/03 05:23:10;;;;;;;64.32;39.72;;;2.00;99.90;;;;;;5012353;28;20512;-82
2023/03/03 05:25:35;;;;;;;70.30;41.80;;;1.40;99.90;;;;;;5012535;28;20076;-82
2023/03/03 05:28:01;;;;;;;65.82;40.53;;;2.00;99.90;;;;;;5012317;28;20479;-81
2023/03/03 05:30:27;;;;;;;66.03;41.22;;;2.00;99.90;;;;;;5012087;28;20101;-83
2023/03/03 05:32:52;;;;;;;65.47;40.25;;;1.50;99.90;;;;;;5012706;28;20030;-82
2023/03/03 05:35:19;;;;;;;68.07;42.50;;;1.50;99.90;;;;;;4994568;28;20545;-82
2023/03/03 05:37:46;;;;;;;66.72;40.20;;;2.00;99.90;;;;;;5012328;28;20040;-81
2023/03/03 05:40:13;;;;;;;69.38;41.65;;;1.90;99.90;;;;;;5012171;28;20025;-82
2023/03/03 05:42:39;;;;;;;64.45;40.10;;;1.50;99.90;;;;;;5012526;28;20030;-82
2023/03/03 05:45:05;;;;;;;65.22;40.67;;;1.40;99.90;;;;;;5012313;28;20117;-82
2023/03/03 05:47:31;;;;;;;62.50;39.60;;;1.50;99.90;;;;;;4994350;28;20040;-81
2023/03/03 05:49:56;;;;;;;68.90;41.33;;;1.40;99.90;;;;;;5012395;28;20022;-82
2023/03/03 05:52:23;;;;;;;67.57;41.40;;;1.30;99.90;;;;;;5012635;28;20488;-82
2023/03/03 05:54:49;;;;;;;67.00;41.67;;;1.80;99.90;;;;;;5012119;28;20091;-82
2023/03/03 05:57:15;;;;;;;70.30;40.95;;;1.70;99.90;;;;;;5023532;28;20509;-82
2023/03/03 05:59:40;;;;;;;68.05;41.28;;;1.30;99.90;;;;;;5031590;28;20022;-81
2023/03/03 06:02:06;;;;;;;68.85;40.28;;;1.50;99.90;;;;;;5032321;28;20040;-82
2023/03/03 06:04:32;;;;;;;66.88;40.55;;;1.40;99.90;;;;;;5031963;28;20021;-82
2023/03/03 06:06:58;;;;;;;65.40;38.67;;;1.90;99.90;;;;;;5031773;28;20029;-82
2023/03/03 06:09:25;;;;;;;64.63;39.67;;;1.50;99.90;;;;;;5031942;28;20032;-82
2023/03/03 06:11:52;;;;;;;68.50;40.45;;;1.40;99.90;;;;;;5031946;28;20029;-82
2023/03/03 06:14:19;;;;;;;63.17;38.13;;;1.40;99.90;;;;;;5035429;28;20026;-82
2023/03/03 06:16:46;;;;;;;67.63;40.45;;;1.40;99.90;;;;;;5035620;28;20022;-82
2023/03/03 06:19:11;;;;;;;70.05;39.92;;;1.90;99.90;;;;;;5035445;28;20037;-81
2023/03/03 06:21:37;;;;;;;62.95;40.63;;;1.30;99.90;;;;;;5035611;28;20029;-82
2023/03/03 06:24:03;;;;;;;63.67;39.28;;;2.00;99.90;;;;;;5035751;28;20108;-82
2023/03/03 06:26:28;;;;;;;62.80;37.80;;;1.30;99.90;;;;;;5035457;28;20173;-81
2023/03/03 06:28:54;;;;;;;59.33;36.58;;;1.30;99.90;;;;;;5035535;28;20095;-82
2023/03/03 06:31:20;;;;;;;67.75;40.03;;;1.80;99.90;;;;;;5035365;28;20068;-82
2023/03/03 06:33:46;;;;;;;62.50;37.90;;;1.20;99.90;;;;;;5035433;28;20060;-81
2023/03/03 06:36:11;;;;;;;67.20;39.70;;;1.40;99.90;;;;;;5036909;28;20048;-89
2023/03/03 06:38:37;;;;;;;64.80;39.63;;;1.90;99.90;;;;;;5035370;28;20029;-88
2023/03/03 06:41:06;;;;;;;67.18;40.20;;;2.70;99.90;;;;;;5035671;28;20026;-89
2023/03/03 06:43:32;;;;;;;69.47;39.88;;;2.70;99.90;;;;;;5035302;28;20491;-88
2023/03/03 06:45:58;;;;;;;64.57;38.08;;;3.20;99.90;;;;;;5035184;28;20025;-88
2023/03/03 06:48:23;;;;;;;64.15;38.78;;;3.00;99.90;;;;;;5035313;28;20370;-88
2023/03/03 06:50:49;;;;;;;65.13;38.22;;;3.40;99.90;;;;;;5017329;28;20032;-88
2023/03/03 06:53:17;;;;;;;64.85;37.85;;;3.70;99.90;;;;;;5017582;28;20022;-89
2023/03/03 06:55:43;;;;;;;69.43;40.00;;;3.50;99.90;;;;;;5034832;28;20164;-88
2023/03/03 06:58:17;;;;;;;66.88;39.05;;;3.30;99.90;;;;;;5015799;28;20050;-88
2023/03/03 07:00:53;;;;;;;67.78;40.90;;;3.30;99.90;;;;;;5015458;28;20026;-89
2023/03/03 07:03:31;;;;;;;69.60;38.55;;;3.20;99.90;;;;;;5015404;28;20105;-88
2023/03/03 07:05:57;;;;;;;60.55;36.75;;;3.00;99.90;;;;;;5015628;28;20501;-88
2023/03/03 07:08:23;;;;;;;61.30;37.08;;;3.30;99.90;;;;;;5015054;28;20030;-89
2023/03/03 07:10:51;;;;;;;59.95;37.10;;;3.40;99.90;;;;;;4997699;28;20026;-88
2023/03/03 07:13:17;;;;;;;64.32;39.17;;;3.10;99.90;;;;;;5014831;28;20034;-88
2023/03/03 07:15:43;;;;;;;60.72;37.88;;;3.40;99.90;;;;;;5014680;28;20090;-88
2023/03/03 07:18:32;;;;;;;62.40;37.30;;;3.10;99.90;;;;;;5015117;28;20493;-89
2023/03/03 07:20:59;;;;;;;61.47;38.25;;;3.20;99.90;;;;;;4997363;28;20095;-88
2023/03/03 07:23:43;;;;;;;66.20;38.88;;;3.10;99.90;;;;;;5014768;28;20112;-88
2023/03/03 07:26:32;;;;;;;61.78;37.30;;;3.50;99.90;;;;;;5014784;28;20029;-88
2023/03/03 07:29:27;;;;;;;67.75;37.58;;;3.40;99.90;;;;;;5014694;28;20078;-88
2023/03/03 07:31:56;;;;;;;63.40;38.00;;;3.20;99.90;;;;;;5014930;28;20030;-88
2023/03/03 07:34:37;;;;;;;62.78;38.92;;;3.40;99.90;;;;;;5014856;28;20018;-88
2023/03/03 07:37:16;;;;;;;63.67;40.13;;;3.30;99.90;;;;;;4997260;28;20026;-89
2023/03/03 07:39:44;;;;;;;64.85;39.80;;;3.40;99.90;;;;;;4997021;28;20113;-88
2023/03/03 07:42:12;;;;;;;62.55;39.28;;;3.60;99.90;;;;;;5014268;28;20026;-89
2023/03/03 07:44:39;;;;;;;63.70;39.42;;;3.60;99.90;;;;;;5014589;28;20029;-88
2023/03/03 07:47:23;;;;;;;64.93;40.78;;;4.10;99.90;;;;;;5014507;28;20402;-89
2023/03/03 07:49:52;;;;;;;67.13;40.38;;;3.90;99.90;;;;;;5014496;28;20029;-88
2023/03/03 07:52:40;;;;;;;63.47;40.08;;;4.10;99.90;;;;;;5014273;28;20029;-89
2023/03/03 07:55:38;;;;;;;62.05;39.55;;;4.20;99.90;;;;;;5013908;28;20024;-88
2023/03/03 07:58:11;;;;;;;66.55;39.50;;;4.60;99.90;;;;;;5032286;28;20041;-89
2023/03/03 08:00:58;;;;;;;64.30;38.75;;;5.00;99.90;;;;;;5033988;28;20067;-88
2023/03/03 08:03:24;;;;;;;62.20;39.17;;;4.90;99.90;;;;;;5033901;28;20029;-88
2023/03/03 08:05:50;;;;;;;63.30;39.63;;;5.30;99.90;;;;;;5016453;28;20398;-88
2023/03/03 08:08:48;;;;;;;64.35;39.15;;;5.20;99.90;;;;;;5016063;28;20151;-89
2023/03/03 08:11:14;;;;;;;61.88;40.67;;;5.30;99.90;;;;;;4973000;28;20042;-88
2023/03/03 08:13:41;;;;;;;62.85;40.45;;;5.30;99.90;;;;;;4956488;28;20026;-88
2023/03/03 08:16:10;;;;;;;66.22;40.03;;;6.10;99.90;;;;;;4972730;28;20030;-88
2023/03/03 08:18:46;;;;;;;60.83;39.35;;;5.70;99.90;;;;;;4973282;28;20030;-88
2023/03/03 08:21:21;;;;;;;67.72;41.35;;;5.60;99.90;;;;;;4972543;28;20042;-88
2023/03/03 08:23:50;;;;;;;60.70;40.13;;;5.70;99.90;;;;;;4972328;28;20031;-88
2023/03/03 08:26:19;;;;;;;61.78;38.58;;;6.10;99.90;;;;;;4972714;28;20052;-88
2023/03/03 08:28:46;;;;;;;59.67;39.20;;;6.20;99.90;;;;;;4972764;28;20138;-88
2023/03/03 08:31:11;;;;;;;63.55;40.88;;;6.20;99.90;;;;;;4972403;28;20026;-89
2023/03/03 08:33:37;;;;;;;62.13;40.78;;;6.40;99.90;;;;;;4972565;28;20061;-89
2023/03/03 08:36:04;;;;;;;59.80;38.40;;;6.20;99.90;;;;;;4971371;28;20030;-88
2023/03/03 08:38:30;;;;;;;65.53;39.50;;;6.40;99.90;;;;;;4972415;28;20023;-89
2023/03/03 08:40:56;;;;;;;64.70;39.30;;;6.80;99.90;;;;;;4971962;28;20047;-89
2023/03/03 08:43:23;;;;;;;62.92;40.90;;;6.50;99.90;;;;;;4955937;28;20019;-89
2023/03/03 08:45:51;;;;;;;62.35;39.60;;;6.80;99.90;;;;;;4961311;28;20031;-89
2023/03/03 08:48:18;;;;;;;58.88;38.95;;;8.00;99.90;;;;;;5033195;28;20044;-88
2023/03/03 08:50:45;;;;;;;58.10;39.05;;;8.50;99.90;;;;;;5033288;28;20091;-89
2023/03/03 08:53:12;;;;;;;58.17;39.45;;;9.20;99.90;;;;;;5014919;28;20064;-89
2023/03/03 08:55:38;;;;;;;59.25;39.50;;;9.60;99.90;;;;;;5014875;28;20556;-88
2023/03/03 08:58:04;;;;;;;54.42;39.58;;;9.80;99.90;;;;;;5014526;28;20157;-89
2023/03/03 09:00:29;;;;;;;54.58;39.75;;;9.40;99.90;;;;;;5013279;28;20108;-88
2023/03/03 09:02:55;;;;;;;58.65;41.28;;;8.50;99.90;;;;;;5013103;28;20080;-88
2023/03/03 09:05:22;;;;;;;62.80;41.85;;;8.30;99.90;;;;;;5013070;28;20022;-88
2023/03/03 09:07:50;;;;;;;56.90;39.38;;;7.80;99.90;;;;;;5013047;28;20034;-88
2023/03/03 09:10:21;;;;;;;57.78;39.63;;;7.60;99.90;;;;;;5013009;28;20216;-89
2023/03/03 09:12:47;;;;;;;58.85;40.85;;;7.40;99.90;;;;;;5012919;28;20040;-88
2023/03/03 09:15:21;;;;;;;60.47;40.33;;;7.30;99.90;;;;;;5012910;28;20026;-88
2023/03/03 09:17:47;;;;;;;54.95;40.28;;;7.50;99.90;;;;;;5012822;28;20037;-88
2023/03/03 09:20:37;;;;;;;56.90;39.33;;;7.60;99.90;;;;;;4995189;28;20441;-88
2023/03/03 09:23:22;;;;;;;56.60;38.13;;;7.90;99.90;;;;;;4994935;28;20044;-89
2023/03/03 09:25:49;;;;;;;58.42;38.95;;;8.20;99.90;;;;;;5012470;28;20390;-89
2023/03/03 09:28:31;;;;;;;54.70;38.40;;;9.60;99.90;;;;;;5012966;28;20045;-89
2023/03/03 09:30:59;;;;;;;58.63;39.08;;;11.00;99.90;;;;;;5012436;28;20041;-88
2023/03/03 09:33:36;;;;;;;53.25;38.00;;;11.60;99.90;;;;;;5012806;28;20022;-89
2023/03/03 09:36:18;;;;;;;53.10;38.38;;;12.30;99.90;;;;;;4995077;28;20474;-89
2023/03/03 09:38:44;;;;;;;53.70;39.15;;;13.40;99.90;;;;;;4995064;28;20415;-89
2023/03/03 09:41:25;;;;;;;53.22;40.20;;;13.80;99.90;;;;;;5012639;28;20097;-89
2023/03/03 09:43:53;;;;;;;53.70;39.78;;;13.50;99.90;;;;;;5012587;28;20033;-89
2023/03/03 09:46:22;;;;;;;51.50;38.75;;;14.20;99.90;;;;;;4995068;28;20057;-89
2023/03/03 09:48:54;;;;;;;56.63;41.33;;;13.70;99.90;;;;;;4994456;28;20069;-89
2023/03/03 09:51:31;;;;;;;53.25;40.70;;;14.00;99.90;;;;;;5012347;28;20026;-89
2023/03/03 09:54:39;;;;;;;52.22;40.17;;;14.70;99.90;;;;;;5012319;28;20022;-89
2023/03/03 09:57:16;;;;;;;48.35;39.20;;;15.10;99.90;;;;;;4980649;28;20054;-89
2023/03/03 10:00:04;;;;;;;51.38;40.63;;;14.50;99.90;;;;;;4990533;28;20117;-90
2023/03/03 10:03:05;;;;;;;52.88;40.72;;;15.00;99.90;;;;;;4990400;28;20035;-89
2023/03/03 10:05:55;;;;;;;49.50;40.20;;;15.00;99.90;;;;;;4990109;28;20026;-89
2023/03/03 10:08:41;;;;;;;51.47;40.83;;;14.80;99.90;;;;;;4974106;28;20285;-90
2023/03/03 10:11:19;;;;;;;50.45;40.40;;;14.90;99.90;;;;;;4974295;28;20379;-90
2023/03/03 10:14:27;;;;;;;47.58;40.33;;;15.00;99.90;;;;;;4990811;28;20038;-89
2023/03/03 10:17:11;;;;;;;51.65;40.75;;;14.70;99.90;;;;;;4990780;28;20022;-90
2023/03/03 10:19:40;;;;;;;50.92;40.45;;;15.60;99.90;;;;;;4974145;28;20030;-90
2023/03/03 10:22:19;;;;;;;51.40;40.50;;;15.90;99.90;;;;;;4990101;28;20035;-89
2023/03/03 10:24:44;;;;;;;47.90;40.13;;;16.00;99.90;;;;;;4990438;28;20030;-89
2023/03/03 10:27:44;;;;;;;47.53;39.38;;;15.10;99.90;;;;;;4990209;28;20125;-89
2023/03/03 10:30:35;;;;;;;52.00;41.50;;;14.60;99.90;;;;;;4990193;28;20042;-90
2023/03/03 10:33:08;;;;;;;51.60;41.10;;;14.10;99.90;;;;;;4992178;28;20476;-89
2023/03/03 10:35:50;;;;;;;53.55;41.42;;;13.60;99.90;;;;;;5013671;28;20033;-90
2023/03/03 10:38:41;;;;;;;50.22;41.38;;;12.70;99.90;;;;;;5014224;28;20025;-89
2023/03/03 10:41:07;;;;;;;51.38;40.17;;;12.10;99.90;;;;;;5031591;28;20033;-89
2023/03/03 10:43:41;;;;;;;52.63;40.95;;;11.80;99.90;;;;;;5031672;28;20404;-88
2023/03/03 10:46:23;;;;;;;51.65;41.25;;;11.40;99.90;;;;;;5031660;28;20535;-89
2023/03/03 10:49:04;;;;;;;51.03;40.90;;;11.80;99.90;;;;;;5013635;28;20402;-89
2023/03/03 10:51:53;;;;;;;51.00;41.15;;;12.60;99.90;;;;;;5031498;28;20415;-90
2023/03/03 10:54:37;;;;;;;54.03;41.20;;;12.90;99.90;;;;;;5031763;28;20498;-90
2023/03/03 10:57:11;;;;;;;48.05;39.25;;;15.10;99.90;;;;;;5004001;28;20149;-89
2023/03/03 10:59:55;;;;;;;50.08;39.08;;;15.00;99.90;;;;;;5013164;28;20081;-89
2023/03/03 11:02:31;;;;;;;50.03;38.15;;;14.40;99.90;;;;;;5015370;28;20571;-89
2023/03/03 11:05:28;;;;;;;48.15;38.78;;;16.00;99.90;;;;;;4997324;28;20037;-89
2023/03/03 11:08:04;;;;;;;50.15;39.10;;;15.10;99.90;;;;;;5015074;28;20037;-89
2023/03/03 11:10:41;;;;;;;44.95;36.78;;;15.50;99.90;;;;;;4998258;28;20037;-90
2023/03/03 11:13:13;;;;;;;45.85;38.50;;;15.60;99.90;;;;;;4997886;28;20037;-89
2023/03/03 11:16:04;;;;;;;44.97;36.95;;;15.20;99.90;;;;;;5015034;28;20425;-90
2023/03/03 11:18:54;;;;;;;45.67;37.55;;;15.00;99.90;;;;;;5014693;28;20095;-90
2023/03/03 11:21:23;;;;;;;44.75;36.58;;;15.80;99.90;;;;;;5014910;28;20101;-90
2023/03/03 11:24:17;;;;;;;45.97;37.83;;;16.70;99.90;;;;;;5014968;28;20101;-90
2023/03/03 11:27:12;;;;;;;46.08;37.95;;;15.20;99.90;;;;;;5014972;28;20113;-90
2023/03/03 11:29:56;;;;;;;46.65;38.17;;;13.50;99.90;;;;;;4973380;28;20051;-89
2023/03/03 11:32:48;;;;;;;47.78;37.35;;;12.60;99.90;;;;;;4973567;28;20027;-88
2023/03/03 11:35:44;;;;;;;48.20;36.85;;;12.00;99.90;;;;;;4973463;28;20039;-89
2023/03/03 11:38:31;;;;;;;47.50;38.72;;;11.40;99.90;;;;;;4973951;28;20031;-89
2023/03/03 11:41:03;;;;;;;47.80;36.65;;;11.20;99.90;;;;;;4973291;28;20098;-89
2023/03/03 11:43:37;;;;;;;45.45;35.40;;;10.70;99.90;;;;;;4973394;28;20038;-89
2023/03/03 11:46:21;;;;;;;47.00;35.65;;;10.60;99.90;;;;;;4973308;28;20038;-89
2023/03/03 11:49:14;;;;;;;47.67;35.15;;;10.60;99.90;;;;;;4972953;28;20146;-89
2023/03/03 11:51:49;;;;;;;48.55;35.53;;;10.50;99.90;;;;;;4973021;28;20031;-89
2023/03/03 11:54:21;;;;;;;44.75;32.83;;;10.10;99.90;;;;;;4956911;28;20043;-89
2023/03/03 11:56:47;;;;;;;48.20;36.03;;;10.20;99.90;;;;;;4980410;28;20042;-89
2023/03/03 11:59:32;;;;;;;46.25;35.70;;;10.30;99.90;;;;;;4992490;28;20073;-89
2023/03/03 12:02:21;;;;;;;50.08;34.10;;;10.50;99.90;;;;;;4992147;28;20080;-88
2023/03/03 12:05:20;;;;;;;46.00;34.90;;;10.50;99.90;;;;;;4992437;28;20387;-89
2023/03/03 12:07:57;;;;;;;46.83;35.15;;;10.20;99.90;;;;;;4974489;28;20049;-89
2023/03/03 12:10:42;;;;;;;47.45;34.42;;;10.10;99.90;;;;;;4991823;28;20026;-89
2023/03/03 12:13:21;;;;;;;47.67;34.78;;;10.10;99.90;;;;;;4992200;28;20113;-88
2023/03/03 12:15:59;;;;;;;46.92;33.83;;;10.20;99.90;;;;;;4991880;28;20045;-88
2023/03/03 12:18:33;;;;;;;47.80;33.92;;;10.30;99.90;;;;;;4992268;28;20630;-89
2023/03/03 12:21:17;;;;;;;48.53;34.13;;;10.20;99.90;;;;;;4992008;28;20033;-89
2023/03/03 12:23:51;;;;;;;48.15;35.10;;;10.20;99.90;;;;;;4992110;28;20129;-88
2023/03/03 12:26:28;;;;;;;49.17;34.80;;;10.20;99.90;;;;;;4992307;28;20049;-89
2023/03/03 12:29:32;;;;;;;50.17;35.20;;;10.20;99.90;;;;;;4992199;28;20442;-89
2023/03/03 12:32:31;;;;;;;48.10;34.00;;;10.10;99.90;;;;;;4971644;28;20497;-89
2023/03/03 12:35:00;;;;;;;46.28;33.72;;;10.40;99.90;;;;;;4991620;28;20042;-89
2023/03/03 12:37:45;;;;;;;48.70;33.28;;;10.30;99.90;;;;;;4991755;28;20026;-89
2023/03/03 12:40:44;;;;;;;47.08;32.95;;;10.20;99.90;;;;;;4991705;28;20078;-89
2023/03/03 12:43:46;;;;;;;46.22;32.88;;;10.20;99.90;;;;;;4975179;28;20116;-89
2023/03/03 12:46:45;;;;;;;48.60;33.85;;;10.30;99.90;;;;;;4914413;29;20040;-89
2023/03/03 12:49:10;;;;;;;46.42;33.78;;;10.10;99.90;;;;;;4914195;29;20049;-89
2023/03/03 12:51:43;;;;;;;47.38;33.63;;;10.10;99.90;;;;;;4914352;29;20043;-89
2023/03/03 12:54:47;;;;;;;44.97;33.30;;;10.20;99.90;;;;;;4914919;29;20621;-88
2023/03/03 12:57:24;;;;;;;49.95;34.40;;;10.20;99.90;;;;;;4906431;29;20044;-89
2023/03/03 13:00:18;;;;;;;47.10;34.08;;;10.10;99.90;;;;;;4914322;29;20032;-89